sensor_id;sensor_type;location;lat;lon;timestamp;P1;durP1;ratioP1;P2;durP2;ratioP2
1082;SDS011;530;51.448;7.238;2022-10-31T00:00:44;14.23;;;8.70;;
1082;SDS011;530;51.448;7.238;2022-10-31T00:03:10;10.63;;;8.20;;
1082;SDS011;530;51.448;7.238;2022-10-31T00:05:36;10.60;;;8.20;;
1082;SDS011;530;51.448;7.238;2022-10-31T00:08:05;10.37;;;7.77;;
1082;SDS011;530;51.448;7.238;2022-10-31T00:10:30;12.23;;;7.80;;
1082;SDS011;530;51.448;7.238;2022-10-31T00:12:56;10.27;;;8.60;;
1082;SDS011;530;51.448;7.238;2022-10-31T00:15:21;14.40;;;9.20;;
1082;SDS011;530;51.448;7.238;2022-10-31T00:17:47;10.97;;;8.20;;
1082;SDS011;530;51.448;7.238;2022-10-31T00:20:12;10.90;;;7.90;;
1082;SDS011;530;51.448;7.238;2022-10-31T00:22:38;12.90;;;8.07;;
1082;SDS011;530;51.448;7.238;2022-10-31T00:25:04;15.00;;;8.03;;
1082;SDS011;530;51.448;7.238;2022-10-31T00:27:29;12.80;;;8.50;;
1082;SDS011;530;51.448;7.238;2022-10-31T00:29:55;13.03;;;8.07;;
1082;SDS011;530;51.448;7.238;2022-10-31T00:32:21;12.63;;;8.10;;
1082;SDS011;530;51.448;7.238;2022-10-31T00:34:46;12.30;;;9.23;;
1082;SDS011;530;51.448;7.238;2022-10-31T00:37:12;9.20;;;7.57;;
1082;SDS011;530;51.448;7.238;2022-10-31T00:39:37;10.73;;;8.10;;
1082;SDS011;530;51.448;7.238;2022-10-31T00:42:03;10.07;;;7.87;;
1082;SDS011;530;51.448;7.238;2022-10-31T00:44:29;11.97;;;7.63;;
1082;SDS011;530;51.448;7.238;2022-10-31T00:46:54;10.83;;;7.93;;
1082;SDS011;530;51.448;7.238;2022-10-31T00:49:20;10.03;;;7.77;;
1082;SDS011;530;51.448;7.238;2022-10-31T00:51:45;10.60;;;7.37;;
1082;SDS011;530;51.448;7.238;2022-10-31T00:54:11;10.20;;;7.30;;
1082;SDS011;530;51.448;7.238;2022-10-31T00:56:37;20.83;;;8.33;;
1082;SDS011;530;51.448;7.238;2022-10-31T00:59:02;11.50;;;7.70;;
1082;SDS011;530;51.448;7.238;2022-10-31T01:01:28;13.00;;;7.63;;
1082;SDS011;530;51.448;7.238;2022-10-31T01:03:53;11.10;;;7.43;;
1082;SDS011;530;51.448;7.238;2022-10-31T01:06:19;12.53;;;7.60;;
1082;SDS011;530;51.448;7.238;2022-10-31T01:08:45;13.97;;;9.07;;
1082;SDS011;530;51.448;7.238;2022-10-31T01:13:39;13.27;;;7.73;;
1082;SDS011;530;51.448;7.238;2022-10-31T01:16:06;11.30;;;7.70;;
1082;SDS011;530;51.448;7.238;2022-10-31T01:18:33;11.90;;;8.30;;
1082;SDS011;530;51.448;7.238;2022-10-31T01:20:59;11.17;;;8.60;;
1082;SDS011;530;51.448;7.238;2022-10-31T01:23:27;16.43;;;9.50;;
1082;SDS011;530;51.448;7.238;2022-10-31T01:25:59;12.73;;;9.30;;
1082;SDS011;530;51.448;7.238;2022-10-31T01:28:26;12.67;;;7.73;;
1082;SDS011;530;51.448;7.238;2022-10-31T01:30:51;11.57;;;8.53;;
1082;SDS011;530;51.448;7.238;2022-10-31T01:33:17;13.17;;;8.30;;
1082;SDS011;530;51.448;7.238;2022-10-31T01:35:43;10.00;;;7.87;;
1082;SDS011;530;51.448;7.238;2022-10-31T01:38:08;11.00;;;8.20;;
1082;SDS011;530;51.448;7.238;2022-10-31T01:40:34;11.77;;;8.73;;
1082;SDS011;530;51.448;7.238;2022-10-31T01:43:00;9.43;;;7.40;;
1082;SDS011;530;51.448;7.238;2022-10-31T01:45:25;14.23;;;8.77;;
1082;SDS011;530;51.448;7.238;2022-10-31T01:47:51;18.60;;;8.07;;
1082;SDS011;530;51.448;7.238;2022-10-31T01:52:53;11.10;;;8.17;;
1082;SDS011;530;51.448;7.238;2022-10-31T01:55:21;17.30;;;8.80;;
1082;SDS011;530;51.448;7.238;2022-10-31T01:57:51;9.67;;;7.60;;
1082;SDS011;530;51.448;7.238;2022-10-31T02:00:20;8.53;;;7.57;;
1082;SDS011;530;51.448;7.238;2022-10-31T02:02:47;14.90;;;8.83;;
1082;SDS011;530;51.448;7.238;2022-10-31T02:05:18;12.83;;;8.13;;
1082;SDS011;530;51.448;7.238;2022-10-31T02:07:53;11.30;;;7.97;;
1082;SDS011;530;51.448;7.238;2022-10-31T02:10:23;10.30;;;7.73;;
1082;SDS011;530;51.448;7.238;2022-10-31T02:12:51;11.30;;;8.93;;
1082;SDS011;530;51.448;7.238;2022-10-31T02:15:20;10.73;;;7.80;;
1082;SDS011;530;51.448;7.238;2022-10-31T02:17:45;12.60;;;7.90;;
1082;SDS011;530;51.448;7.238;2022-10-31T02:22:58;12.70;;;8.60;;
1082;SDS011;530;51.448;7.238;2022-10-31T02:26:19;10.73;;;7.50;;
1082;SDS011;530;51.448;7.238;2022-10-31T02:32:07;15.17;;;8.37;;
1082;SDS011;530;51.448;7.238;2022-10-31T02:42:53;9.50;;;8.33;;
1082;SDS011;530;51.448;7.238;2022-10-31T02:47:53;11.83;;;8.20;;
1082;SDS011;530;51.448;7.238;2022-10-31T02:50:23;10.50;;;7.70;;
1082;SDS011;530;51.448;7.238;2022-10-31T02:52:53;9.67;;;8.07;;
1082;SDS011;530;51.448;7.238;2022-10-31T02:57:47;17.00;;;8.20;;
1082;SDS011;530;51.448;7.238;2022-10-31T03:00:14;11.00;;;8.10;;
1082;SDS011;530;51.448;7.238;2022-10-31T03:11:23;13.27;;;8.57;;
1082;SDS011;530;51.448;7.238;2022-10-31T03:14:09;11.93;;;8.80;;
1082;SDS011;530;51.448;7.238;2022-10-31T03:16:47;9.93;;;7.70;;
1082;SDS011;530;51.448;7.238;2022-10-31T03:19:19;15.00;;;8.70;;
1082;SDS011;530;51.448;7.238;2022-10-31T03:21:57;13.80;;;8.77;;
1082;SDS011;530;51.448;7.238;2022-10-31T03:24:32;13.20;;;9.00;;
1082;SDS011;530;51.448;7.238;2022-10-31T03:27:03;12.67;;;8.47;;
1082;SDS011;530;51.448;7.238;2022-10-31T03:29:33;11.63;;;7.67;;
1082;SDS011;530;51.448;7.238;2022-10-31T03:32:02;12.23;;;9.50;;
1082;SDS011;530;51.448;7.238;2022-10-31T03:34:31;12.40;;;8.03;;
1082;SDS011;530;51.448;7.238;2022-10-31T03:36:59;12.23;;;9.07;;
1082;SDS011;530;51.448;7.238;2022-10-31T03:39:27;14.57;;;9.10;;
1082;SDS011;530;51.448;7.238;2022-10-31T03:42:02;13.10;;;9.40;;
1082;SDS011;530;51.448;7.238;2022-10-31T03:44:35;16.80;;;8.03;;
1082;SDS011;530;51.448;7.238;2022-10-31T03:47:06;14.20;;;7.20;;
1082;SDS011;530;51.448;7.238;2022-10-31T03:49:32;10.23;;;7.77;;
1082;SDS011;530;51.448;7.238;2022-10-31T03:52:00;11.60;;;8.47;;
1082;SDS011;530;51.448;7.238;2022-10-31T03:54:48;13.10;;;8.73;;
1082;SDS011;530;51.448;7.238;2022-10-31T03:57:39;12.03;;;8.60;;
1082;SDS011;530;51.448;7.238;2022-10-31T04:00:09;10.87;;;8.17;;
1082;SDS011;530;51.448;7.238;2022-10-31T04:02:38;12.50;;;8.10;;
1082;SDS011;530;51.448;7.238;2022-10-31T04:05:10;14.67;;;9.03;;
1082;SDS011;530;51.448;7.238;2022-10-31T04:07:41;13.10;;;9.80;;
1082;SDS011;530;51.448;7.238;2022-10-31T04:10:10;14.43;;;9.40;;
1082;SDS011;530;51.448;7.238;2022-10-31T04:12:39;18.43;;;9.40;;
1082;SDS011;530;51.448;7.238;2022-10-31T04:15:08;12.27;;;8.60;;
1082;SDS011;530;51.448;7.238;2022-10-31T04:17:38;10.47;;;8.07;;
1082;SDS011;530;51.448;7.238;2022-10-31T04:20:05;12.93;;;9.53;;
1082;SDS011;530;51.448;7.238;2022-10-31T04:22:31;13.50;;;10.57;;
1082;SDS011;530;51.448;7.238;2022-10-31T04:24:57;12.27;;;9.23;;
1082;SDS011;530;51.448;7.238;2022-10-31T04:27:22;10.90;;;9.00;;
1082;SDS011;530;51.448;7.238;2022-10-31T04:29:48;16.27;;;10.07;;
1082;SDS011;530;51.448;7.238;2022-10-31T04:32:14;12.80;;;9.40;;
1082;SDS011;530;51.448;7.238;2022-10-31T04:34:39;10.57;;;9.00;;
1082;SDS011;530;51.448;7.238;2022-10-31T04:37:05;15.00;;;8.77;;
1082;SDS011;530;51.448;7.238;2022-10-31T04:39:30;12.23;;;8.90;;
1082;SDS011;530;51.448;7.238;2022-10-31T04:41:56;15.90;;;9.20;;
1082;SDS011;530;51.448;7.238;2022-10-31T04:44:22;15.20;;;9.90;;
1082;SDS011;530;51.448;7.238;2022-10-31T04:46:47;11.90;;;8.87;;
1082;SDS011;530;51.448;7.238;2022-10-31T04:49:13;14.53;;;8.37;;
1082;SDS011;530;51.448;7.238;2022-10-31T04:51:38;15.07;;;8.83;;
1082;SDS011;530;51.448;7.238;2022-10-31T04:54:04;10.10;;;7.90;;
1082;SDS011;530;51.448;7.238;2022-10-31T04:56:30;13.57;;;8.70;;
1082;SDS011;530;51.448;7.238;2022-10-31T04:58:55;14.13;;;8.20;;
1082;SDS011;530;51.448;7.238;2022-10-31T05:01:21;17.70;;;9.00;;
1082;SDS011;530;51.448;7.238;2022-10-31T05:03:47;16.47;;;8.10;;
1082;SDS011;530;51.448;7.238;2022-10-31T05:06:12;16.03;;;9.10;;
1082;SDS011;530;51.448;7.238;2022-10-31T05:08:38;10.53;;;8.37;;
1082;SDS011;530;51.448;7.238;2022-10-31T05:11:04;13.10;;;8.87;;
1082;SDS011;530;51.448;7.238;2022-10-31T05:13:30;13.83;;;8.70;;
1082;SDS011;530;51.448;7.238;2022-10-31T05:15:56;10.77;;;8.77;;
1082;SDS011;530;51.448;7.238;2022-10-31T05:18:21;10.27;;;8.83;;
1082;SDS011;530;51.448;7.238;2022-10-31T05:20:48;11.90;;;8.67;;
1082;SDS011;530;51.448;7.238;2022-10-31T05:23:13;12.20;;;9.23;;
1082;SDS011;530;51.448;7.238;2022-10-31T05:25:39;12.20;;;9.57;;
1082;SDS011;530;51.448;7.238;2022-10-31T05:28:06;12.17;;;8.37;;
1082;SDS011;530;51.448;7.238;2022-10-31T05:30:32;11.97;;;7.80;;
1082;SDS011;530;51.448;7.238;2022-10-31T05:32:58;12.90;;;8.37;;
1082;SDS011;530;51.448;7.238;2022-10-31T05:35:28;11.33;;;9.40;;
1082;SDS011;530;51.448;7.238;2022-10-31T05:37:55;13.83;;;10.13;;
1082;SDS011;530;51.448;7.238;2022-10-31T05:40:22;13.90;;;11.57;;
1082;SDS011;530;51.448;7.238;2022-10-31T05:42:52;16.73;;;11.67;;
1082;SDS011;530;51.448;7.238;2022-10-31T05:45:19;12.90;;;10.97;;
1082;SDS011;530;51.448;7.238;2022-10-31T05:48:04;14.30;;;10.60;;
1082;SDS011;530;51.448;7.238;2022-10-31T05:50:30;14.63;;;10.13;;
1082;SDS011;530;51.448;7.238;2022-10-31T05:52:57;22.40;;;11.60;;
1082;SDS011;530;51.448;7.238;2022-10-31T05:55:25;14.20;;;10.80;;
1082;SDS011;530;51.448;7.238;2022-10-31T05:57:51;21.43;;;11.43;;
1082;SDS011;530;51.448;7.238;2022-10-31T06:00:18;15.47;;;11.23;;
1082;SDS011;530;51.448;7.238;2022-10-31T06:02:44;19.37;;;11.63;;
1082;SDS011;530;51.448;7.238;2022-10-31T06:05:09;15.77;;;11.50;;
1082;SDS011;530;51.448;7.238;2022-10-31T06:07:35;19.00;;;12.00;;
1082;SDS011;530;51.448;7.238;2022-10-31T06:10:02;16.40;;;11.50;;
1082;SDS011;530;51.448;7.238;2022-10-31T06:12:29;17.50;;;11.20;;
1082;SDS011;530;51.448;7.238;2022-10-31T06:14:55;24.67;;;12.03;;
1082;SDS011;530;51.448;7.238;2022-10-31T06:17:20;17.20;;;12.70;;
1082;SDS011;530;51.448;7.238;2022-10-31T06:19:46;19.67;;;11.77;;
1082;SDS011;530;51.448;7.238;2022-10-31T06:22:12;21.20;;;12.87;;
1082;SDS011;530;51.448;7.238;2022-10-31T06:24:37;15.53;;;11.80;;
1082;SDS011;530;51.448;7.238;2022-10-31T06:27:03;15.33;;;11.13;;
1082;SDS011;530;51.448;7.238;2022-10-31T06:29:30;19.30;;;12.03;;
1082;SDS011;530;51.448;7.238;2022-10-31T06:31:55;16.10;;;12.60;;
1082;SDS011;530;51.448;7.238;2022-10-31T06:34:21;16.53;;;12.33;;
1082;SDS011;530;51.448;7.238;2022-10-31T06:36:47;19.03;;;12.20;;
1082;SDS011;530;51.448;7.238;2022-10-31T06:39:13;15.73;;;11.63;;
1082;SDS011;530;51.448;7.238;2022-10-31T06:41:39;18.33;;;11.80;;
1082;SDS011;530;51.448;7.238;2022-10-31T06:44:06;17.57;;;10.97;;
1082;SDS011;530;51.448;7.238;2022-10-31T06:46:32;15.93;;;12.17;;
1082;SDS011;530;51.448;7.238;2022-10-31T06:48:58;19.47;;;11.90;;
1082;SDS011;530;51.448;7.238;2022-10-31T06:51:24;16.83;;;11.70;;
1082;SDS011;530;51.448;7.238;2022-10-31T06:53:49;16.73;;;11.13;;
1082;SDS011;530;51.448;7.238;2022-10-31T06:56:15;16.93;;;12.60;;
1082;SDS011;530;51.448;7.238;2022-10-31T06:58:41;22.80;;;11.87;;
1082;SDS011;530;51.448;7.238;2022-10-31T07:01:06;15.77;;;11.43;;
1082;SDS011;530;51.448;7.238;2022-10-31T07:03:32;18.60;;;11.93;;
1082;SDS011;530;51.448;7.238;2022-10-31T07:05:57;20.00;;;12.40;;
1082;SDS011;530;51.448;7.238;2022-10-31T07:08:23;17.23;;;12.40;;
1082;SDS011;530;51.448;7.238;2022-10-31T07:10:53;20.03;;;14.13;;
1082;SDS011;530;51.448;7.238;2022-10-31T07:13:21;16.90;;;12.50;;
1082;SDS011;530;51.448;7.238;2022-10-31T07:15:51;17.20;;;12.33;;
1082;SDS011;530;51.448;7.238;2022-10-31T07:18:24;19.93;;;12.07;;
1082;SDS011;530;51.448;7.238;2022-10-31T07:20:51;22.90;;;12.47;;
1082;SDS011;530;51.448;7.238;2022-10-31T07:23:17;18.67;;;12.50;;
1082;SDS011;530;51.448;7.238;2022-10-31T07:25:43;20.03;;;14.40;;
1082;SDS011;530;51.448;7.238;2022-10-31T07:28:08;18.23;;;12.03;;
1082;SDS011;530;51.448;7.238;2022-10-31T07:30:35;19.67;;;13.67;;
1082;SDS011;530;51.448;7.238;2022-10-31T07:33:02;18.57;;;13.20;;
1082;SDS011;530;51.448;7.238;2022-10-31T07:35:28;21.30;;;13.43;;
1082;SDS011;530;51.448;7.238;2022-10-31T07:37:54;18.30;;;12.87;;
1082;SDS011;530;51.448;7.238;2022-10-31T07:40:20;23.03;;;12.57;;
1082;SDS011;530;51.448;7.238;2022-10-31T07:42:47;21.00;;;12.87;;
1082;SDS011;530;51.448;7.238;2022-10-31T07:45:15;18.47;;;12.43;;
1082;SDS011;530;51.448;7.238;2022-10-31T07:47:45;17.77;;;13.67;;
1082;SDS011;530;51.448;7.238;2022-10-31T07:50:20;22.40;;;13.37;;
1082;SDS011;530;51.448;7.238;2022-10-31T07:55:29;14.63;;;11.43;;
1082;SDS011;530;51.448;7.238;2022-10-31T07:57:56;16.57;;;10.97;;
1082;SDS011;530;51.448;7.238;2022-10-31T08:00:21;20.50;;;13.43;;
1082;SDS011;530;51.448;7.238;2022-10-31T08:02:47;17.93;;;11.17;;
1082;SDS011;530;51.448;7.238;2022-10-31T08:05:13;18.70;;;11.53;;
1082;SDS011;530;51.448;7.238;2022-10-31T08:07:38;18.17;;;11.80;;
1082;SDS011;530;51.448;7.238;2022-10-31T08:10:04;15.43;;;11.70;;
1082;SDS011;530;51.448;7.238;2022-10-31T08:12:30;14.20;;;10.17;;
1082;SDS011;530;51.448;7.238;2022-10-31T08:14:56;16.20;;;11.53;;
1082;SDS011;530;51.448;7.238;2022-10-31T08:17:22;17.37;;;10.80;;
1082;SDS011;530;51.448;7.238;2022-10-31T08:19:47;15.83;;;11.53;;
1082;SDS011;530;51.448;7.238;2022-10-31T08:22:13;13.67;;;10.17;;
1082;SDS011;530;51.448;7.238;2022-10-31T08:24:38;14.40;;;11.00;;
1082;SDS011;530;51.448;7.238;2022-10-31T08:27:04;16.47;;;11.43;;
1082;SDS011;530;51.448;7.238;2022-10-31T08:29:30;14.07;;;10.70;;
1082;SDS011;530;51.448;7.238;2022-10-31T08:31:57;17.53;;;10.93;;
1082;SDS011;530;51.448;7.238;2022-10-31T08:34:23;20.83;;;11.77;;
1082;SDS011;530;51.448;7.238;2022-10-31T08:36:49;11.87;;;10.60;;
1082;SDS011;530;51.448;7.238;2022-10-31T08:39:15;16.37;;;11.03;;
1082;SDS011;530;51.448;7.238;2022-10-31T08:41:40;13.87;;;11.30;;
1082;SDS011;530;51.448;7.238;2022-10-31T08:44:06;13.70;;;10.10;;
1082;SDS011;530;51.448;7.238;2022-10-31T08:46:31;15.60;;;11.80;;
1082;SDS011;530;51.448;7.238;2022-10-31T08:48:57;18.20;;;13.13;;
1082;SDS011;530;51.448;7.238;2022-10-31T08:51:23;17.73;;;11.17;;
1082;SDS011;530;51.448;7.238;2022-10-31T08:53:49;23.57;;;13.30;;
1082;SDS011;530;51.448;7.238;2022-10-31T08:56:14;24.03;;;15.03;;
1082;SDS011;530;51.448;7.238;2022-10-31T08:58:40;20.77;;;14.60;;
1082;SDS011;530;51.448;7.238;2022-10-31T09:01:06;26.90;;;14.47;;
1082;SDS011;530;51.448;7.238;2022-10-31T09:03:31;21.27;;;13.73;;
1082;SDS011;530;51.448;7.238;2022-10-31T09:05:58;21.97;;;13.97;;
1082;SDS011;530;51.448;7.238;2022-10-31T09:08:25;21.90;;;14.50;;
1082;SDS011;530;51.448;7.238;2022-10-31T09:10:51;22.30;;;14.27;;
1082;SDS011;530;51.448;7.238;2022-10-31T09:13:21;18.73;;;13.30;;
1082;SDS011;530;51.448;7.238;2022-10-31T09:15:47;23.37;;;14.33;;
1082;SDS011;530;51.448;7.238;2022-10-31T09:18:15;20.40;;;13.53;;
1082;SDS011;530;51.448;7.238;2022-10-31T09:20:43;20.33;;;13.30;;
1082;SDS011;530;51.448;7.238;2022-10-31T09:23:11;20.03;;;13.93;;
1082;SDS011;530;51.448;7.238;2022-10-31T09:25:38;20.47;;;11.80;;
1082;SDS011;530;51.448;7.238;2022-10-31T09:28:05;23.80;;;14.30;;
1082;SDS011;530;51.448;7.238;2022-10-31T09:30:34;21.53;;;14.70;;
1082;SDS011;530;51.448;7.238;2022-10-31T09:33:04;19.23;;;13.13;;
1082;SDS011;530;51.448;7.238;2022-10-31T09:35:31;25.50;;;15.07;;
1082;SDS011;530;51.448;7.238;2022-10-31T09:37:58;23.13;;;13.47;;
1082;SDS011;530;51.448;7.238;2022-10-31T09:43:03;20.20;;;12.60;;
1082;SDS011;530;51.448;7.238;2022-10-31T09:45:42;24.43;;;13.10;;
1082;SDS011;530;51.448;7.238;2022-10-31T09:56:41;20.60;;;12.47;;
1082;SDS011;530;51.448;7.238;2022-10-31T09:59:13;19.80;;;12.90;;
1082;SDS011;530;51.448;7.238;2022-10-31T10:05:00;24.17;;;13.83;;
1082;SDS011;530;51.448;7.238;2022-10-31T10:10:04;26.97;;;14.00;;
1082;SDS011;530;51.448;7.238;2022-10-31T10:16:05;20.17;;;13.70;;
1082;SDS011;530;51.448;7.238;2022-10-31T10:18:43;20.40;;;12.90;;
1082;SDS011;530;51.448;7.238;2022-10-31T10:32:45;25.77;;;14.20;;
1082;SDS011;530;51.448;7.238;2022-10-31T10:38:07;21.63;;;13.30;;
1082;SDS011;530;51.448;7.238;2022-10-31T10:40:53;21.80;;;14.70;;
1082;SDS011;530;51.448;7.238;2022-10-31T10:43:38;18.57;;;14.00;;
1082;SDS011;530;51.448;7.238;2022-10-31T11:00:18;18.67;;;12.97;;
1082;SDS011;530;51.448;7.238;2022-10-31T11:02:44;19.30;;;12.50;;
1082;SDS011;530;51.448;7.238;2022-10-31T11:05:33;16.33;;;11.83;;
1082;SDS011;530;51.448;7.238;2022-10-31T11:08:04;18.93;;;13.10;;
1082;SDS011;530;51.448;7.238;2022-10-31T11:10:30;19.73;;;13.20;;
1082;SDS011;530;51.448;7.238;2022-10-31T11:15:59;15.50;;;12.20;;
1082;SDS011;530;51.448;7.238;2022-10-31T11:18:30;17.47;;;12.80;;
1082;SDS011;530;51.448;7.238;2022-10-31T11:21:00;18.03;;;12.70;;
1082;SDS011;530;51.448;7.238;2022-10-31T11:23:28;19.07;;;14.10;;
1082;SDS011;530;51.448;7.238;2022-10-31T11:26:03;19.90;;;12.00;;
1082;SDS011;530;51.448;7.238;2022-10-31T11:28:32;16.57;;;13.50;;
1082;SDS011;530;51.448;7.238;2022-10-31T11:31:08;16.57;;;12.10;;
1082;SDS011;530;51.448;7.238;2022-10-31T11:36:22;18.80;;;12.50;;
1082;SDS011;530;51.448;7.238;2022-10-31T11:38:50;17.17;;;11.00;;
1082;SDS011;530;51.448;7.238;2022-10-31T11:41:17;20.23;;;11.90;;
1082;SDS011;530;51.448;7.238;2022-10-31T11:43:46;20.10;;;11.47;;
1082;SDS011;530;51.448;7.238;2022-10-31T11:46:21;21.77;;;12.40;;
1082;SDS011;530;51.448;7.238;2022-10-31T11:48:54;20.93;;;11.77;;
1082;SDS011;530;51.448;7.238;2022-10-31T11:51:24;16.33;;;11.07;;
1082;SDS011;530;51.448;7.238;2022-10-31T11:53:54;18.97;;;10.90;;
1082;SDS011;530;51.448;7.238;2022-10-31T11:56:21;13.23;;;10.03;;
1082;SDS011;530;51.448;7.238;2022-10-31T11:58:57;14.70;;;10.00;;
1082;SDS011;530;51.448;7.238;2022-10-31T12:01:31;13.30;;;9.60;;
1082;SDS011;530;51.448;7.238;2022-10-31T12:04:00;16.30;;;10.77;;
1082;SDS011;530;51.448;7.238;2022-10-31T12:06:37;13.53;;;9.10;;
1082;SDS011;530;51.448;7.238;2022-10-31T12:09:21;12.57;;;8.80;;
1082;SDS011;530;51.448;7.238;2022-10-31T12:17:34;11.60;;;8.60;;
1082;SDS011;530;51.448;7.238;2022-10-31T12:44:30;10.67;;;7.90;;
1082;SDS011;530;51.448;7.238;2022-10-31T12:54:56;10.07;;;7.70;;
1082;SDS011;530;51.448;7.238;2022-10-31T12:57:40;11.33;;;6.63;;
1082;SDS011;530;51.448;7.238;2022-10-31T13:02:51;18.80;;;7.80;;
1082;SDS011;530;51.448;7.238;2022-10-31T13:05:36;10.37;;;7.57;;
1082;SDS011;530;51.448;7.238;2022-10-31T13:08:10;10.13;;;6.87;;
1082;SDS011;530;51.448;7.238;2022-10-31T13:10:46;11.13;;;6.83;;
1082;SDS011;530;51.448;7.238;2022-10-31T13:16:10;11.40;;;6.63;;
1082;SDS011;530;51.448;7.238;2022-10-31T13:18:50;12.07;;;6.93;;
1082;SDS011;530;51.448;7.238;2022-10-31T13:21:27;12.87;;;6.93;;
1082;SDS011;530;51.448;7.238;2022-10-31T13:23:58;12.07;;;7.30;;
1082;SDS011;530;51.448;7.238;2022-10-31T13:26:34;13.43;;;6.90;;
1082;SDS011;530;51.448;7.238;2022-10-31T13:29:16;9.13;;;6.60;;
1082;SDS011;530;51.448;7.238;2022-10-31T13:31:42;15.33;;;6.47;;
1082;SDS011;530;51.448;7.238;2022-10-31T13:34:11;11.80;;;6.77;;
1082;SDS011;530;51.448;7.238;2022-10-31T13:36:53;14.10;;;6.93;;
1082;SDS011;530;51.448;7.238;2022-10-31T13:42:22;8.60;;;6.37;;
1082;SDS011;530;51.448;7.238;2022-10-31T13:45:06;8.10;;;6.47;;
1082;SDS011;530;51.448;7.238;2022-10-31T13:53:12;13.17;;;6.20;;
1082;SDS011;530;51.448;7.238;2022-10-31T13:55:44;10.70;;;6.63;;
1082;SDS011;530;51.448;7.238;2022-10-31T13:58:31;10.40;;;6.20;;
1082;SDS011;530;51.448;7.238;2022-10-31T14:03:45;7.23;;;5.57;;
1082;SDS011;530;51.448;7.238;2022-10-31T14:06:12;16.23;;;6.27;;
1082;SDS011;530;51.448;7.238;2022-10-31T14:08:42;9.20;;;6.60;;
1082;SDS011;530;51.448;7.238;2022-10-31T14:11:24;16.23;;;6.00;;
1082;SDS011;530;51.448;7.238;2022-10-31T14:13:52;11.63;;;6.27;;
1082;SDS011;530;51.448;7.238;2022-10-31T14:16:26;6.33;;;5.10;;
1082;SDS011;530;51.448;7.238;2022-10-31T14:19:05;11.23;;;5.23;;
1082;SDS011;530;51.448;7.238;2022-10-31T14:21:42;17.27;;;6.13;;
1082;SDS011;530;51.448;7.238;2022-10-31T14:26:57;10.23;;;5.03;;
1082;SDS011;530;51.448;7.238;2022-10-31T14:29:32;10.60;;;5.13;;
1082;SDS011;530;51.448;7.238;2022-10-31T14:32:06;10.17;;;5.10;;
1082;SDS011;530;51.448;7.238;2022-10-31T14:34:43;10.33;;;5.20;;
1082;SDS011;530;51.448;7.238;2022-10-31T14:40:39;9.20;;;5.10;;
1082;SDS011;530;51.448;7.238;2022-10-31T14:43:44;9.00;;;5.43;;
1082;SDS011;530;51.448;7.238;2022-10-31T14:46:31;11.00;;;6.00;;
1082;SDS011;530;51.448;7.238;2022-10-31T14:49:10;12.67;;;6.27;;
1082;SDS011;530;51.448;7.238;2022-10-31T14:51:49;8.50;;;5.00;;
1082;SDS011;530;51.448;7.238;2022-10-31T14:54:22;7.47;;;4.43;;
1082;SDS011;530;51.448;7.238;2022-10-31T14:56:56;9.80;;;5.60;;
1082;SDS011;530;51.448;7.238;2022-10-31T14:59:27;10.93;;;5.67;;
1082;SDS011;530;51.448;7.238;2022-10-31T15:01:58;8.10;;;5.77;;
1082;SDS011;530;51.448;7.238;2022-10-31T15:04:27;14.77;;;5.80;;
1082;SDS011;530;51.448;7.238;2022-10-31T15:07:14;9.47;;;5.70;;
1082;SDS011;530;51.448;7.238;2022-10-31T15:09:44;8.50;;;5.03;;
1082;SDS011;530;51.448;7.238;2022-10-31T15:12:21;9.10;;;4.90;;
1082;SDS011;530;51.448;7.238;2022-10-31T15:14:48;9.53;;;6.27;;
1082;SDS011;530;51.448;7.238;2022-10-31T15:17:14;13.07;;;5.63;;
1082;SDS011;530;51.448;7.238;2022-10-31T15:19:41;42.40;;;8.30;;
1082;SDS011;530;51.448;7.238;2022-10-31T15:22:10;10.33;;;5.73;;
1082;SDS011;530;51.448;7.238;2022-10-31T15:24:48;11.97;;;5.53;;
1082;SDS011;530;51.448;7.238;2022-10-31T15:27:21;29.77;;;6.93;;
1082;SDS011;530;51.448;7.238;2022-10-31T15:29:48;9.37;;;6.03;;
1082;SDS011;530;51.448;7.238;2022-10-31T15:32:20;11.47;;;5.93;;
1082;SDS011;530;51.448;7.238;2022-10-31T15:34:48;14.30;;;5.80;;
1082;SDS011;530;51.448;7.238;2022-10-31T15:37:15;12.20;;;6.23;;
1082;SDS011;530;51.448;7.238;2022-10-31T15:39:42;11.07;;;5.60;;
1082;SDS011;530;51.448;7.238;2022-10-31T15:42:19;10.70;;;6.30;;
1082;SDS011;530;51.448;7.238;2022-10-31T15:47:28;9.37;;;5.27;;
1082;SDS011;530;51.448;7.238;2022-10-31T15:49:56;7.80;;;5.33;;
1082;SDS011;530;51.448;7.238;2022-10-31T15:52:42;9.50;;;5.50;;
1082;SDS011;530;51.448;7.238;2022-10-31T15:57:47;9.43;;;5.63;;
1082;SDS011;530;51.448;7.238;2022-10-31T16:00:25;7.00;;;5.07;;
1082;SDS011;530;51.448;7.238;2022-10-31T16:03:03;7.70;;;5.00;;
1082;SDS011;530;51.448;7.238;2022-10-31T16:10:56;8.27;;;4.77;;
1082;SDS011;530;51.448;7.238;2022-10-31T16:13:39;8.87;;;4.43;;
1082;SDS011;530;51.448;7.238;2022-10-31T16:16:16;7.27;;;4.37;;
1082;SDS011;530;51.448;7.238;2022-10-31T16:18:45;9.10;;;5.10;;
1082;SDS011;530;51.448;7.238;2022-10-31T16:21:12;7.50;;;4.30;;
1082;SDS011;530;51.448;7.238;2022-10-31T16:23:39;10.37;;;4.20;;
1082;SDS011;530;51.448;7.238;2022-10-31T16:26:13;10.27;;;4.53;;
1082;SDS011;530;51.448;7.238;2022-10-31T16:28:53;8.60;;;4.43;;
1082;SDS011;530;51.448;7.238;2022-10-31T16:31:28;7.13;;;4.10;;
1082;SDS011;530;51.448;7.238;2022-10-31T16:34:03;6.20;;;4.37;;
1082;SDS011;530;51.448;7.238;2022-10-31T16:36:38;7.17;;;4.33;;
1082;SDS011;530;51.448;7.238;2022-10-31T16:39:05;6.40;;;4.50;;
1082;SDS011;530;51.448;7.238;2022-10-31T16:41:31;9.97;;;4.10;;
1082;SDS011;530;51.448;7.238;2022-10-31T16:44:04;9.50;;;4.03;;
1082;SDS011;530;51.448;7.238;2022-10-31T16:46:39;8.47;;;4.13;;
1082;SDS011;530;51.448;7.238;2022-10-31T16:49:04;7.13;;;4.20;;
1082;SDS011;530;51.448;7.238;2022-10-31T16:51:32;5.20;;;4.00;;
1082;SDS011;530;51.448;7.238;2022-10-31T16:53:58;8.27;;;4.60;;
1082;SDS011;530;51.448;7.238;2022-10-31T16:56:26;6.27;;;3.47;;
1082;SDS011;530;51.448;7.238;2022-10-31T16:58:55;8.47;;;3.77;;
1082;SDS011;530;51.448;7.238;2022-10-31T17:01:21;8.20;;;3.73;;
1082;SDS011;530;51.448;7.238;2022-10-31T17:03:47;12.03;;;4.87;;
1082;SDS011;530;51.448;7.238;2022-10-31T17:06:13;9.53;;;3.80;;
1082;SDS011;530;51.448;7.238;2022-10-31T17:08:39;10.07;;;4.33;;
1082;SDS011;530;51.448;7.238;2022-10-31T17:11:05;9.20;;;3.93;;
1082;SDS011;530;51.448;7.238;2022-10-31T17:13:33;12.27;;;4.53;;
1082;SDS011;530;51.448;7.238;2022-10-31T17:16:00;9.33;;;3.87;;
1082;SDS011;530;51.448;7.238;2022-10-31T17:18:27;8.43;;;3.60;;
1082;SDS011;530;51.448;7.238;2022-10-31T17:20:58;5.80;;;4.03;;
1082;SDS011;530;51.448;7.238;2022-10-31T17:23:26;5.43;;;3.77;;
1082;SDS011;530;51.448;7.238;2022-10-31T17:25:53;8.70;;;3.80;;
1082;SDS011;530;51.448;7.238;2022-10-31T17:28:18;6.87;;;4.43;;
1082;SDS011;530;51.448;7.238;2022-10-31T17:30:44;7.47;;;4.63;;
1082;SDS011;530;51.448;7.238;2022-10-31T17:33:11;7.43;;;3.93;;
1082;SDS011;530;51.448;7.238;2022-10-31T17:35:37;6.80;;;3.83;;
1082;SDS011;530;51.448;7.238;2022-10-31T17:38:03;8.20;;;4.13;;
1082;SDS011;530;51.448;7.238;2022-10-31T17:40:28;6.50;;;4.30;;
1082;SDS011;530;51.448;7.238;2022-10-31T17:42:55;6.20;;;3.47;;
1082;SDS011;530;51.448;7.238;2022-10-31T17:45:22;7.83;;;3.33;;
1082;SDS011;530;51.448;7.238;2022-10-31T17:47:50;7.77;;;3.67;;
1082;SDS011;530;51.448;7.238;2022-10-31T17:50:17;7.60;;;3.70;;
1082;SDS011;530;51.448;7.238;2022-10-31T17:52:49;6.43;;;3.50;;
1082;SDS011;530;51.448;7.238;2022-10-31T17:55:15;10.10;;;4.17;;
1082;SDS011;530;51.448;7.238;2022-10-31T17:57:41;6.10;;;3.70;;
1082;SDS011;530;51.448;7.238;2022-10-31T18:00:15;6.07;;;3.77;;
1082;SDS011;530;51.448;7.238;2022-10-31T18:02:42;8.83;;;4.30;;
1082;SDS011;530;51.448;7.238;2022-10-31T18:05:08;6.43;;;3.57;;
1082;SDS011;530;51.448;7.238;2022-10-31T18:07:34;7.47;;;3.83;;